Observations for PRESTWICK CIV NAVY, United Kingdom (EGPK)

EGPK 240920Z 04010KT 9999 FEW020 BKN030 15/13 Q1018 
EGPK 240850Z 05008KT 9999 FEW022 BKN031 16/13 Q1018 
EGPK 240820Z 04009KT 010V080 9999 FEW022 SCT035 16/13 Q1017 
EGPK 240750Z 05009KT 010V080 9999 FEW022 SCT035 15/13 Q1017 
EGPK 240720Z 05009KT 9999 FEW020 SCT032 15/13 Q1017 
EGPK 240650Z 05008KT 9999 FEW020 SCT032 15/13 Q1017 
EGPK 240620Z 04009KT 9999 FEW020 SCT032 14/13 Q1017 
EGPK 240550Z 05006KT 9999 FEW018 SCT030 14/12 Q1017 
EGPK 240450Z 05007KT 9999 FEW018 SCT030 13/12 Q1017 
EGPK 240350Z 04006KT 9999 FEW018 SCT030 13/12 Q1018 
EGPK 240250Z 04010KT 9999 -RA FEW015 SCT026 12/11 Q1018 
EGPK 240150Z 07004KT 9999 -RA FEW020 SCT032 12/11 Q1020 
EGPK 232350Z 05007KT 9999 -RA FEW022 SCT030 13/10 Q1019 
EGPK 232320Z 05007KT 9999 -RA FEW022 SCT030 13/10 Q1019 
EGPK 232250Z 05005KT 9999 -RA FEW022 SCT030 13/09 Q1020 
EGPK 232220Z 06006KT 9999 -RA FEW020 SCT035 13/09 Q1020 
EGPK 232150Z 05008KT 9999 -RA FEW020 SCT035 13/09 Q1020 
EGPK 232120Z 06006KT 9999 -RA FEW030 14/09 Q1020
EGPK 232050Z 08008KT 9999 FEW030 15/08 Q1020
EGPK 232020Z 05008KT 9999 FEW032 16/07 Q1019
EGPK 231950Z 05005KT 9999 FEW032 17/07 Q1019
EGPK 231920Z 07007KT 9999 FEW032 17/07 Q1019
EGPK 231850Z 07007KT 040V100 9999 FEW030 18/07 Q1019
EGPK 231820Z 10012KT 9999 FEW030 18/07 Q1019
EGPK 231750Z 09011KT 9999 FEW030 19/07 Q1019
EGPK 231720Z 10008KT 9999 FEW030 20/08 Q1019
EGPK 231650Z 10011KT 9999 FEW030 20/08 Q1019
EGPK 231620Z 11012KT 9999 FEW030 21/08 Q1019
EGPK 231550Z 12012KT 9999 FEW030 21/08 Q1019
EGPK 231520Z 12013KT 9999 FEW030 22/08 Q1019
EGPK 231450Z 12016KT 9999 FEW030 22/07 Q1019
EGPK 231420Z 11016KT 9999 FEW030 23/08 Q1019
EGPK 231350Z 12015KT 9999 FEW030 23/08 Q1019
EGPK 231320Z 10012KT 9999 FEW030 23/09 Q1019
EGPK 231250Z 11013KT 9999 FEW030 22/09 Q1019
EGPK 231220Z 10010KT 070V140 9999 FEW030 22/09 Q1019
EGPK 231150Z 11009KT 070V140 9999 FEW030 22/09 Q1020
EGPK 231120Z 16008KT 130V200 9999 FEW030 21/10 Q1019
EGPK 231050Z 12009KT 9999 FEW030 21/10 Q1019
EGPK 231020Z 12006KT 100V170 9999 FEW035 21/11 Q1019
EGPK 230950Z 11008KT 080V140 9999 FEW035 20/11 Q1020
EGPK 230920Z 10006KT 9999 FEW035 19/12 Q1020
EGPK 230850Z 11007KT 080V140 9999 FEW035 19/11 Q1020